Time;durP1;ratioP1;P1;durP2;ratioP2;P2;SDS_P1;SDS_P2;PMS_P1;PMS_P2;Temp;Humidity;BMP_temperature;BMP_pressure;BME280_temperature;BME280_humidity;BME280_pressure;Samples;Min_cycle;Max_cycle;Signal;HPM_P1;HPM_P2
2021/08/15 00:00:10;;;;;;;20.82;14.38;;;;;;;18.17;76.56;97365.95;1747273;81;27536;-83
2021/08/15 00:02:39;;;;;;;18.98;14.00;;;;;;;18.15;76.56;97371.39;1742176;81;25671;-83
2021/08/15 00:05:10;;;;;;;19.67;14.23;;;;;;;18.10;76.55;97372.19;1744772;81;25772;-84
2021/08/15 00:07:37;;;;;;;16.40;13.53;;;;;;;18.08;76.60;97372.98;1748702;81;25754;-83
2021/08/15 00:10:06;;;;;;;14.53;12.93;;;;;;;18.07;76.63;97374.61;1738259;81;26159;-83
2021/08/15 00:12:32;;;;;;;20.48;13.10;;;;;;;18.06;76.61;97371.05;1737313;81;27361;-83
2021/08/15 00:14:59;;;;;;;15.32;12.63;;;;;;;18.04;76.63;97372.38;1738199;81;25711;-83
2021/08/15 00:17:26;;;;;;;16.52;12.63;;;;;;;18.02;76.66;97368.55;1728158;81;25672;-84
2021/08/15 00:19:52;;;;;;;16.90;12.95;;;;;;;18.00;76.63;97367.97;1747947;81;25767;-83
2021/08/15 00:22:19;;;;;;;14.90;12.95;;;;;;;17.97;76.67;97371.25;1738308;81;25790;-82
2021/08/15 00:24:46;;;;;;;17.62;13.20;;;;;;;17.95;76.68;97359.21;1738130;81;27422;-83
2021/08/15 00:27:13;;;;;;;14.50;12.55;;;;;;;17.93;76.61;97364.64;1729536;81;26349;-84
2021/08/15 00:29:40;;;;;;;17.67;12.75;;;;;;;17.90;76.68;97359.69;1746924;81;25722;-83
2021/08/15 00:32:06;;;;;;;16.62;13.50;;;;;;;17.88;76.72;97361.85;1745390;81;26855;-83
2021/08/15 00:34:34;;;;;;;13.45;12.05;;;;;;;17.86;76.72;97362.68;1741063;81;25985;-83
2021/08/15 00:37:01;;;;;;;16.15;12.58;;;;;;;17.86;76.75;97358.58;1738185;81;27366;-83
2021/08/15 00:39:27;;;;;;;14.53;12.25;;;;;;;17.82;76.72;97363.73;1727351;81;25974;-83
2021/08/15 00:41:54;;;;;;;14.30;12.73;;;;;;;17.81;76.72;97361.25;1727707;81;25907;-83
2021/08/15 00:44:21;;;;;;;14.93;12.05;;;;;;;17.79;76.77;97363.41;1738167;81;25724;-83
2021/08/15 00:46:49;;;;;;;12.37;10.78;;;;;;;17.75;76.74;97358.20;1748670;81;25770;-83
2021/08/15 00:49:16;;;;;;;13.20;11.60;;;;;;;17.74;76.72;97359.28;1738197;81;27321;-83
2021/08/15 00:51:42;;;;;;;15.88;11.73;;;;;;;17.71;76.75;97358.43;1730347;81;25777;-82
2021/08/15 00:54:09;;;;;;;19.42;12.18;;;;;;;17.68;76.76;97356.20;1715468;82;25398;-83
2021/08/15 00:56:36;;;;;;;16.12;12.47;;;;;;;17.66;76.85;97352.91;1729679;81;25777;-82
2021/08/15 00:59:05;;;;;;;17.48;13.03;;;;;;;17.62;76.93;97354.78;1730859;81;25279;-83
2021/08/15 01:01:34;;;;;;;20.05;13.65;;;;;;;17.60;77.01;97359.66;1727818;82;27385;-83
2021/08/15 01:04:05;;;;;;;21.77;12.88;;;;;;;17.63;77.05;97356.97;1726789;81;26140;-84
2021/08/15 01:06:35;;;;;;;15.88;12.58;;;;;;;17.58;77.08;97359.09;1732976;81;25774;-83
2021/08/15 01:09:07;;;;;;;17.48;12.90;;;;;;;17.53;77.16;97356.30;1728207;81;25757;-84
2021/08/15 01:11:35;;;;;;;;;;;;;;;17.55;77.25;97354.67;1725197;81;25843;-84
2021/08/15 01:14:05;;;;;;;16.97;11.83;;;;;;;17.47;77.31;97350.52;1722062;81;28372;-83
2021/08/15 01:16:35;;;;;;;17.12;13.43;;;;;;;17.38;77.30;97345.78;1721631;81;25810;-83
2021/08/15 01:19:02;;;;;;;16.48;13.08;;;;;;;17.31;77.36;97345.96;1731125;81;25757;-83
2021/08/15 01:21:28;;;;;;;25.32;13.78;;;;;;;17.30;77.54;97340.22;1704795;81;25847;-84
2021/08/15 01:23:55;;;;;;;18.85;12.70;;;;;;;17.31;77.60;97349.23;1728634;82;25852;-83
2021/08/15 01:26:22;;;;;;;17.45;12.50;;;;;;;17.31;77.67;97347.86;1719769;83;28346;-83
2021/08/15 01:28:50;;;;;;;15.95;12.60;;;;;;;17.34;77.68;97346.81;1752911;81;25977;-83
2021/08/15 01:31:17;;;;;;;15.45;11.95;;;;;;;17.34;77.57;97347.36;1722921;82;26345;-83
2021/08/15 01:33:44;;;;;;;18.05;12.03;;;;;;;17.28;77.57;97351.92;1724654;82;25788;-83
2021/08/15 01:36:15;;;;;;;16.35;12.07;;;;;;;17.28;77.68;97350.02;1732536;81;25760;-83
2021/08/15 01:38:43;;;;;;;13.40;11.93;;;;;;;17.30;77.69;97344.30;1737522;81;27453;-83
2021/08/15 01:41:10;;;;;;;15.18;11.33;;;;;;;17.30;77.68;97349.77;1720339;82;25868;-83
2021/08/15 01:43:54;;;;;;;18.42;11.80;;;;;;;17.31;77.63;97351.41;1701558;82;25754;-83
2021/08/15 01:46:25;;;;;;;13.55;11.55;;;;;;;17.29;77.65;97347.57;1738759;81;26813;-83
2021/08/15 01:48:52;;;;;;;17.70;12.43;;;;;;;17.26;77.64;97341.28;1749108;81;25769;-82
2021/08/15 01:51:19;;;;;;;16.77;12.43;;;;;;;17.21;77.65;97345.30;1737881;81;28837;-83
2021/08/15 01:53:49;;;;;;;14.87;11.80;;;;;;;17.23;77.72;97340.97;1737858;81;25862;-83
2021/08/15 01:56:18;;;;;;;17.37;11.85;;;;;;;17.22;77.70;97345.59;1738166;81;25701;-83
2021/08/15 01:58:44;;;;;;;12.95;11.43;;;;;;;17.22;77.66;97338.77;1744409;81;25826;-83
2021/08/15 02:01:16;;;;;;;13.58;10.82;;;;;;;17.22;77.62;97342.04;1700458;83;25710;-83
2021/08/15 02:03:44;;;;;;;15.03;11.73;;;;;;;17.20;77.58;97340.10;1707286;83;27458;-82
2021/08/15 02:06:11;;;;;;;16.45;12.23;;;;;;;17.19;77.63;97337.09;1713791;83;25791;-83
2021/08/15 02:08:38;;;;;;;16.10;12.23;;;;;;;17.18;77.60;97332.70;1736837;81;26130;-83
2021/08/15 02:11:05;;;;;;;12.65;11.38;;;;;;;17.17;77.60;97336.52;1728863;81;25754;-82
2021/08/15 02:13:32;;;;;;;14.00;10.98;;;;;;;17.14;77.60;97335.69;1732822;81;25485;-82
2021/08/15 02:15:59;;;;;;;16.00;11.90;;;;;;;17.13;77.56;97331.30;1732427;81;27456;-83
2021/08/15 02:18:25;;;;;;;15.00;11.83;;;;;;;17.12;77.59;97335.11;1738833;81;25299;-84
2021/08/15 02:20:52;;;;;;;18.30;11.75;;;;;;;17.05;77.53;97334.45;1739757;81;25884;-83
2021/08/15 02:23:18;;;;;;;16.30;11.65;;;;;;;16.97;77.60;97334.37;1738325;81;25907;-83
2021/08/15 02:25:45;;;;;;;15.75;12.15;;;;;;;16.99;77.75;97331.40;1739989;81;25811;-82
2021/08/15 02:28:12;;;;;;;16.93;11.08;;;;;;;16.99;77.81;97332.77;1753142;81;27436;-82
2021/08/15 02:30:38;;;;;;;14.07;11.68;;;;;;;16.99;77.74;97330.03;1742600;81;25693;-83
2021/08/15 02:33:05;;;;;;;15.32;11.83;;;;;;;16.98;77.77;97331.11;1753159;81;25852;-82
2021/08/15 02:35:32;;;;;;;13.83;11.15;;;;;;;16.93;77.75;97327.23;1730121;81;25797;-82
2021/08/15 02:37:59;;;;;;;14.23;11.68;;;;;;;16.91;77.77;97328.02;1747674;81;25648;-82
2021/08/15 02:40:26;;;;;;;16.80;11.22;;;;;;;16.88;77.76;97329.09;1746716;81;27424;-82
2021/08/15 02:42:55;;;;;;;15.90;11.78;;;;;;;16.85;77.80;97327.69;1742702;81;25776;-83
2021/08/15 02:45:25;;;;;;;14.98;11.60;;;;;;;16.85;77.80;97334.50;1745993;81;25780;-82
2021/08/15 02:47:52;;;;;;;14.28;10.40;;;;;;;16.83;77.79;97330.38;1749966;81;25767;-82
2021/08/15 02:50:20;;;;;;;11.00;9.70;;;;;;;16.81;77.80;97326.53;1746255;81;26366;-83
2021/08/15 02:52:48;;;;;;;11.05;9.38;;;;;;;16.80;77.83;97330.33;1720255;81;28064;-84
2021/08/15 02:55:15;;;;;;;12.70;9.78;;;;;;;16.78;77.74;97330.33;1746415;81;25739;-82
2021/08/15 02:57:42;;;;;;;14.60;10.38;;;;;;;16.75;77.72;97326.20;1726719;81;25706;-82
2021/08/15 03:00:12;;;;;;;17.07;10.90;;;;;;;16.74;77.72;97323.18;1739892;82;25725;-83
2021/08/15 03:02:39;;;;;;;18.50;11.73;;;;;;;16.70;77.76;97326.11;1734728;82;25787;-82
2021/08/15 03:05:09;;;;;;;16.62;11.53;;;;;;;16.67;77.78;97323.88;1716778;82;28355;-83
2021/08/15 03:07:36;;;;;;;13.55;10.72;;;;;;;16.62;77.83;97321.61;1726860;82;25781;-83
2021/08/15 03:10:05;;;;;;;16.10;11.50;;;;;;;16.62;77.92;97323.83;1727139;81;25885;-83
2021/08/15 03:12:32;;;;;;;15.58;11.03;;;;;;;16.62;78.00;97319.75;1737752;82;27081;-83
2021/08/15 03:14:59;;;;;;;17.32;12.28;;;;;;;16.61;78.03;97319.42;1713653;82;25754;-83
2021/08/15 03:17:25;;;;;;;15.48;12.15;;;;;;;16.57;78.11;97314.19;1737107;82;28403;-83
2021/08/15 03:19:52;;;;;;;20.23;12.58;;;;;;;16.56;78.29;97311.99;1716683;82;25868;-83
2021/08/15 03:22:18;;;;;;;17.02;12.43;;;;;;;16.59;78.33;97312.03;1737613;82;25649;-83
2021/08/15 03:24:45;;;;;;;17.05;11.50;;;;;;;16.62;78.32;97311.57;1714622;82;25839;-84
2021/08/15 03:27:12;;;;;;;14.87;11.68;;;;;;;16.64;78.27;97314.05;1736335;82;25733;-83
2021/08/15 03:29:38;;;;;;;17.60;12.43;;;;;;;16.60;78.32;97309.59;1737239;82;28176;-83
2021/08/15 03:32:05;;;;;;;14.10;12.20;;;;;;;16.58;78.31;97311.75;1735052;82;25740;-83
2021/08/15 03:34:32;;;;;;;15.00;11.65;;;;;;;16.57;78.43;97311.45;1739709;82;26715;-83
2021/08/15 03:36:58;;;;;;;19.87;12.73;;;;;;;16.55;78.39;97313.60;1713547;82;25757;-83
2021/08/15 03:39:29;;;;;;;15.88;12.23;;;;;;;16.53;78.51;97311.16;1736742;82;25764;-83
2021/08/15 03:41:58;;;;;;;14.03;11.65;;;;;;;16.52;78.49;97314.12;1730093;82;28297;-84
2021/08/15 03:44:22;;;;;;;13.78;11.75;;;;;;;16.51;78.55;97310.58;1743847;81;25673;-83
2021/08/15 03:46:48;;;;;;;16.65;11.53;;;;;;;16.54;78.55;97304.60;1728034;82;25750;-83
2021/08/15 03:49:17;;;;;;;14.60;10.70;;;;;;;16.56;78.50;97307.08;1725985;82;26216;-83
2021/08/15 03:51:43;;;;;;;11.75;10.48;;;;;;;16.57;78.44;97305.47;1716782;82;25789;-83
2021/08/15 03:54:10;;;;;;;14.30;11.38;;;;;;;16.58;78.44;97310.38;1737180;81;27579;-84
2021/08/15 03:56:36;;;;;;;15.18;11.68;;;;;;;16.58;78.41;97303.57;1731509;81;25916;-83
2021/08/15 03:59:03;;;;;;;14.58;11.95;;;;;;;16.58;78.40;97303.57;1752892;81;26566;-84
2021/08/15 04:01:30;;;;;;;15.72;11.65;;;;;;;16.57;78.36;97300.55;1745738;81;26632;-83
2021/08/15 04:03:56;;;;;;;16.80;11.80;;;;;;;16.56;78.34;97301.63;1727829;81;26351;-83
2021/08/15 04:06:23;;;;;;;17.60;12.25;;;;;;;16.56;78.45;97304.36;1744846;81;28339;-83
2021/08/15 04:08:51;;;;;;;14.55;12.82;;;;;;;16.58;78.51;97307.66;1748397;81;25699;-83
2021/08/15 04:11:19;;;;;;;18.55;12.33;;;;;;;16.59;78.55;97303.86;1738118;81;25769;-83
2021/08/15 04:13:46;;;;;;;15.55;12.58;;;;;;;16.58;78.61;97298.95;1749410;81;25923;-83
2021/08/15 04:16:12;;;;;;;15.30;12.30;;;;;;;16.58;78.61;97295.39;1753000;81;25661;-83
2021/08/15 04:18:39;;;;;;;20.00;12.45;;;;;;;16.57;78.67;97301.38;1742896;81;27512;-83
2021/08/15 04:21:05;;;;;;;15.50;13.68;;;;;;;16.56;78.71;97294.28;1723442;81;25758;-83
2021/08/15 04:23:32;;;;;;;16.17;13.10;;;;;;;16.56;78.78;97294.28;1747223;81;25849;-83
2021/08/15 04:25:59;;;;;;;14.38;12.82;;;;;;;16.60;78.84;97297.34;1731907;81;26578;-83
2021/08/15 04:28:26;;;;;;;15.65;12.70;;;;;;;16.64;78.91;97293.08;1745475;81;25880;-83
2021/08/15 04:30:53;;;;;;;19.12;13.20;;;;;;;16.67;79.01;97288.45;1750487;81;27460;-83
2021/08/15 04:33:24;;;;;;;17.60;13.83;;;;;;;16.67;79.05;97290.36;1720870;82;25689;-83
2021/08/15 04:35:49;;;;;;;20.52;14.90;;;;;;;16.70;79.10;97288.50;1747170;81;26021;-83
2021/08/15 04:38:16;;;;;;;17.92;13.60;;;;;;;16.73;79.13;97287.46;1722842;81;25752;-83
2021/08/15 04:40:42;;;;;;;19.92;13.10;;;;;;;16.78;79.20;97292.16;1723141;81;25723;-83
2021/08/15 04:43:09;;;;;;;13.18;11.78;;;;;;;16.81;79.18;97287.00;1723054;81;27533;-83
2021/08/15 04:45:35;;;;;;;17.35;12.73;;;;;;;16.84;79.25;97281.05;1722998;81;25695;-83
2021/08/15 04:48:03;;;;;;;14.65;12.63;;;;;;;16.87;79.19;97279.19;1728540;81;25772;-83
2021/08/15 04:50:29;;;;;;;22.67;12.63;;;;;;;16.92;79.25;97282.50;1753162;81;26537;-83
2021/08/15 04:52:56;;;;;;;21.97;17.75;;;;;;;16.95;79.25;97288.81;1722940;82;25763;-83
2021/08/15 04:55:23;;;;;;;26.82;20.55;;;;;;;16.98;79.23;97277.94;1722862;81;28060;-83
2021/08/15 04:57:50;;;;;;;23.98;18.65;;;;;;;17.01;79.27;97277.44;1725022;82;25691;-83
2021/08/15 05:00:16;;;;;;;23.12;16.37;;;;;;;17.03;79.32;97277.98;1695557;83;25798;-83
2021/08/15 05:02:43;;;;;;;23.10;17.55;;;;;;;17.06;79.30;97278.84;1700085;83;26289;-82
2021/08/15 05:05:10;;;;;;;23.60;16.12;;;;;;;17.09;79.39;97279.16;1732711;82;25757;-83
2021/08/15 05:07:37;;;;;;;19.92;16.25;;;;;;;17.13;79.43;97276.76;1704384;82;27431;-83
2021/08/15 05:10:04;;;;;;;17.45;15.53;;;;;;;17.17;79.54;97273.24;1713952;83;25798;-83
2021/08/15 05:12:31;;;;;;;20.27;15.55;;;;;;;17.22;79.57;97268.39;1725855;82;26347;-83
2021/08/15 05:14:57;;;;;;;18.62;15.35;;;;;;;17.27;79.66;97271.16;1714807;82;26510;-83
2021/08/15 05:17:24;;;;;;;22.00;15.98;;;;;;;17.34;79.73;97270.97;1722789;82;25268;-83
2021/08/15 05:19:51;;;;;;;20.88;17.05;;;;;;;17.40;79.81;97263.10;1719784;82;27955;-83
2021/08/15 05:22:17;;;;;;;21.65;16.35;;;;;;;17.46;79.88;97275.19;1710804;83;25807;-82
2021/08/15 05:24:44;;;;;;;20.37;16.82;;;;;;;17.53;79.91;97267.60;1715951;82;26281;-83
2021/08/15 05:27:10;;;;;;;20.40;16.87;;;;;;;17.60;79.95;97264.14;1695035;83;26826;-83
2021/08/15 05:29:37;;;;;;;19.57;15.15;;;;;;;17.67;80.02;97270.77;1713333;82;26295;-83
2021/08/15 05:32:04;;;;;;;17.85;16.00;;;;;;;17.74;80.12;97267.30;1701862;83;27467;-83
2021/08/15 05:34:32;;;;;;;22.27;16.77;;;;;;;17.81;80.16;97264.33;1725072;82;25702;-82
2021/08/15 05:36:58;;;;;;;19.37;14.95;;;;;;;17.88;80.31;97264.37;1719867;82;25805;-82
2021/08/15 05:39:25;;;;;;;24.10;17.27;;;;;;;17.95;80.30;97262.81;1699264;83;25768;-83
2021/08/15 05:41:51;;;;;;;21.20;16.05;;;;;;;18.03;80.38;97266.41;1734067;82;25776;-83
2021/08/15 05:44:18;;;;;;;20.55;16.42;;;;;;;18.09;80.43;97262.64;1718356;83;27374;-83
2021/08/15 05:46:45;;;;;;;21.05;14.90;;;;;;;18.16;80.45;97267.33;1714938;82;25779;-83
2021/08/15 05:49:11;;;;;;;18.57;15.10;;;;;;;18.24;80.51;97262.72;1700446;83;25738;-83
2021/08/15 05:51:38;;;;;;;16.65;14.95;;;;;;;18.32;80.62;97264.16;1725258;82;26507;-82
2021/08/15 05:54:04;;;;;;;18.77;14.58;;;;;;;18.40;80.63;97260.91;1707803;82;25690;-83
2021/08/15 05:56:33;;;;;;;20.27;15.35;;;;;;;18.48;80.70;97256.84;1745971;81;27568;-84
2021/08/15 05:58:59;;;;;;;15.88;14.23;;;;;;;18.56;80.80;97260.46;1727388;81;25801;-83
2021/08/15 06:01:26;;;;;;;18.73;14.70;;;;;;;18.65;80.76;97255.61;1729455;82;25776;-84
2021/08/15 06:03:53;;;;;;;18.55;14.30;;;;;;;18.75;80.71;97249.36;1744953;81;25905;-83
2021/08/15 06:06:19;;;;;;;17.73;15.30;;;;;;;18.85;80.73;97252.13;1728625;81;25729;-83
2021/08/15 06:08:46;;;;;;;22.82;14.95;;;;;;;18.95;80.74;97252.19;1715545;82;27498;-83
2021/08/15 06:11:15;;;;;;;19.80;15.13;;;;;;;19.05;80.69;97248.12;1733761;81;25288;-83
2021/08/15 06:13:42;;;;;;;16.50;13.48;;;;;;;19.14;80.56;97245.67;1710440;82;25818;-83
2021/08/15 06:16:08;;;;;;;16.75;13.78;;;;;;;19.22;80.43;97245.13;1721396;80;25919;-83
2021/08/15 06:18:35;;;;;;;21.42;14.33;;;;;;;19.32;80.41;97244.36;1716926;82;26356;-83
2021/08/15 06:21:02;;;;;;;14.90;13.32;;;;;;;19.41;80.39;97247.65;1707807;82;27454;-84
2021/08/15 06:23:28;;;;;;;19.55;13.40;;;;;;;19.52;80.42;97247.14;1721990;81;25856;-84
2021/08/15 06:25:55;;;;;;;21.23;14.90;;;;;;;19.61;80.46;97240.57;1721546;82;25767;-84
2021/08/15 06:28:22;;;;;;;15.53;13.88;;;;;;;19.71;80.56;97244.13;1737540;81;26920;-84
2021/08/15 06:30:48;;;;;;;15.72;13.90;;;;;;;19.83;80.67;97241.66;1738523;81;26306;-84
2021/08/15 06:33:15;;;;;;;15.63;12.55;;;;;;;19.93;80.74;97232.89;1749710;81;27355;-84
2021/08/15 06:35:42;;;;;;;15.83;14.13;;;;;;;20.05;80.94;97233.97;1728962;82;26466;-84
2021/08/15 06:38:08;;;;;;;14.43;12.80;;;;;;;20.21;81.05;97237.52;1725141;82;25808;-85
2021/08/15 06:40:35;;;;;;;16.30;12.98;;;;;;;20.31;80.80;97230.09;1732277;81;26456;-84
2021/08/15 06:43:09;;;;;;;15.70;13.55;;;;;;;20.40;80.56;97231.22;1725367;82;25691;-85
2021/08/15 06:45:36;;;;;;;15.75;12.30;;;;;;;20.51;80.25;97237.49;1735551;81;27974;-85
2021/08/15 06:48:04;;;;;;;20.95;13.78;;;;;;;20.61;80.11;97235.27;1722027;82;25940;-84
2021/08/15 06:50:32;;;;;;;14.47;12.63;;;;;;;20.72;80.12;97230.83;1735879;81;25844;-85
2021/08/15 06:52:58;;;;;;;15.50;13.15;;;;;;;20.84;80.13;97238.19;1722104;82;25761;-85
2021/08/15 06:55:25;;;;;;;13.53;12.03;;;;;;;20.95;80.06;97227.98;1749257;81;25816;-84
2021/08/15 06:57:52;;;;;;;14.10;12.53;;;;;;;21.05;79.85;97230.67;1750205;81;28314;-85
2021/08/15 07:00:18;;;;;;;17.37;12.35;;;;;;;21.16;79.68;97225.39;1749019;81;25672;-85
2021/08/15 07:02:48;;;;;;;14.85;12.70;;;;;;;21.30;79.68;97230.28;1723204;82;25240;-85
2021/08/15 07:05:14;;;;;;;15.63;11.88;;;;;;;21.47;79.37;97230.73;1730202;81;25701;-86
2021/08/15 07:07:40;;;;;;;13.03;11.53;;;;;;;21.62;78.89;97226.48;1730405;81;25779;-85
2021/08/15 07:10:09;;;;;;;13.10;11.73;;;;;;;21.75;78.70;97214.84;1736439;80;27347;-85
2021/08/15 07:12:36;;;;;;;12.73;11.43;;;;;;;21.87;78.75;97218.03;1696866;83;25776;-85
2021/08/15 07:15:06;;;;;;;17.10;11.93;;;;;;;21.96;78.45;97214.13;1729557;82;25686;-85
2021/08/15 07:17:36;;;;;;;15.88;11.70;;;;;;;22.08;78.30;97215.15;1712923;83;25696;-85
2021/08/15 07:20:01;;;;;;;15.90;11.78;;;;;;;22.21;78.33;97211.72;1752224;81;25725;-86
2021/08/15 07:22:27;;;;;;;12.78;11.30;;;;;;;22.47;77.48;97211.69;1725733;81;27214;-84
2021/08/15 07:24:55;;;;;;;13.70;11.25;;;;;;;22.47;77.48;97211.69;1747402;81;26357;-85
2021/08/15 07:27:23;;;;;;;14.43;11.55;;;;;;;22.61;77.64;97216.76;1719215;81;25936;-84
2021/08/15 07:29:50;;;;;;;15.05;11.08;;;;;;;22.62;77.33;97188.69;1721582;81;25857;-85
2021/08/15 07:32:16;;;;;;;16.35;11.48;;;;;;;22.75;76.81;97188.53;1733260;81;25671;-85
2021/08/15 07:34:43;;;;;;;14.43;10.90;;;;;;;23.03;76.33;97211.05;1694668;83;28169;-85
2021/08/15 07:37:09;;;;;;;14.25;11.38;;;;;;;23.23;76.28;97212.13;1735178;81;25751;-86
2021/08/15 07:39:36;;;;;;;13.38;11.20;;;;;;;23.43;75.89;97207.43;1717464;82;26371;-85
2021/08/15 07:42:03;;;;;;;13.30;11.00;;;;;;;23.63;75.63;97208.55;1742459;81;25747;-87
2021/08/15 07:44:30;;;;;;;11.88;10.60;;;;;;;23.87;75.28;97199.59;1722909;82;26268;-87
2021/08/15 07:46:56;;;;;;;15.85;10.40;;;;;;;24.23;74.37;97196.23;1717534;82;27438;-86
2021/08/15 07:49:23;;;;;;;13.58;9.98;;;;;;;24.61;73.55;97192.19;1742514;81;25287;-86
2021/08/15 07:51:50;;;;;;;16.42;12.40;;;;;;;25.06;73.34;97197.89;1736387;81;25628;-84
2021/08/15 07:54:17;;;;;;;14.55;12.65;;;;;;;25.55;72.40;97197.61;1721291;83;26602;-85
2021/08/15 07:56:44;;;;;;;13.60;11.30;;;;;;;25.99;71.53;97190.72;1743684;81;25740;-87
2021/08/15 07:59:10;;;;;;;15.93;10.30;;;;;;;26.44;70.79;97195.66;1746166;82;28320;-88
2021/08/15 08:01:38;;;;;;;12.15;10.55;;;;;;;26.83;69.39;97192.03;1723319;82;44766;-88
2021/08/15 08:04:06;;;;;;;12.53;9.35;;;;;;;27.19;68.83;97191.00;1746101;82;25839;-87
2021/08/15 08:06:32;;;;;;;12.85;11.18;;;;;;;27.53;68.52;97194.39;1746442;82;25745;-89
2021/08/15 08:08:59;;;;;;;11.75;8.88;;;;;;;27.82;68.03;97191.78;1746533;81;25275;-87
2021/08/15 08:11:25;;;;;;;11.05;8.75;;;;;;;28.06;66.85;97182.94;1746362;81;28193;-87
2021/08/15 08:13:52;;;;;;;9.73;8.28;;;;;;;28.30;66.16;97181.84;1746267;82;25801;-85
2021/08/15 08:16:19;;;;;;;10.63;8.15;;;;;;;28.56;65.59;97179.55;1746332;81;25837;-89
2021/08/15 08:18:47;;;;;;;10.32;8.65;;;;;;;28.82;64.88;97178.07;1746241;82;25851;-86
2021/08/15 08:21:13;;;;;;;16.73;9.13;;;;;;;29.06;64.22;97180.22;1746443;81;25761;-87
2021/08/15 08:23:40;;;;;;;11.88;8.33;;;;;;;29.26;63.54;97173.29;1746406;82;27347;-88
2021/08/15 08:26:07;;;;;;;15.93;8.05;;;;;;;29.52;62.68;97177.88;1746248;82;25759;-84
2021/08/15 08:28:33;;;;;;;10.00;8.05;;;;;;;29.77;61.96;97176.03;1746428;82;25818;-85
2021/08/15 08:31:00;;;;;;;10.10;7.83;;;;;;;30.00;61.34;97171.16;1746429;81;26466;-85
2021/08/15 08:33:27;;;;;;;12.30;8.03;;;;;;;30.25;60.90;97159.52;1746435;81;25824;-89
2021/08/15 08:35:54;;;;;;;9.40;8.15;;;;;;;30.50;60.54;97159.55;1746271;81;27449;-86
2021/08/15 08:38:20;;;;;;;12.33;8.10;;;;;;;30.84;59.80;97161.92;1746337;81;25795;-86
2021/08/15 08:40:49;;;;;;;11.28;8.80;;;;;;;31.05;59.12;97158.41;1746058;82;25897;-90
2021/08/15 08:43:21;;;;;;;14.55;8.48;;;;;;;31.32;58.66;97162.47;1745085;81;25761;-84
2021/08/15 08:45:48;;;;;;;14.07;8.53;;;;;;;31.45;57.67;97152.10;1746452;82;25866;-84
2021/08/15 08:48:17;;;;;;;9.80;7.47;;;;;;;31.63;57.23;97149.84;1746306;82;27374;-83
2021/08/15 08:50:43;;;;;;;11.50;7.78;;;;;;;31.76;56.48;97148.05;1746429;81;25728;-89
2021/08/15 08:53:10;;;;;;;14.53;7.60;;;;;;;32.01;56.06;97145.16;1746571;82;25709;-89
2021/08/15 08:55:37;;;;;;;14.35;8.10;;;;;;;32.23;55.21;97140.42;1746341;82;25819;-90
2021/08/15 08:58:03;;;;;;;11.45;7.92;;;;;;;32.37;54.37;97139.96;1743246;82;25848;-88
2021/08/15 09:00:30;;;;;;;11.30;7.72;;;;;;;32.47;53.89;97133.87;1723115;82;28290;-87
2021/08/15 09:02:57;;;;;;;12.70;7.47;;;;;;;32.56;53.22;97125.52;1716548;83;25811;-91
2021/08/15 09:05:33;;;;;;;15.40;8.23;;;;;;;32.68;52.87;97130.20;1706417;83;25797;-90
2021/08/15 09:08:00;;;;;;;11.75;7.47;;;;;;;32.85;52.48;97124.83;1746641;82;26393;-89
2021/08/15 09:10:39;;;;;;;11.97;7.58;;;;;;;32.97;52.00;97120.52;1709540;83;26248;-90
2021/08/15 09:13:08;;;;;;;10.03;8.03;;;;;;;33.08;51.87;97120.21;1713958;83;27376;-90
2021/08/15 09:15:36;;;;;;;14.33;7.95;;;;;;;33.15;50.82;97116.75;1715241;81;25721;-88
2021/08/15 09:18:03;;;;;;;13.43;8.03;;;;;;;33.04;50.31;97112.31;1699262;83;25860;-96
2021/08/15 09:20:41;;;;;;;9.85;7.35;;;;;;;33.06;50.58;97104.37;1719420;82;26306;-89
2021/08/15 09:23:30;;;;;;;11.33;7.78;;;;;;;33.05;50.34;97103.34;1734330;82;25322;-92
2021/08/15 09:26:18;;;;;;;12.93;8.03;;;;;;;33.07;50.21;97100.41;1740677;81;27320;-88
2021/08/15 09:28:51;;;;;;;14.47;7.45;;;;;;;33.20;49.87;97103.89;1716546;83;25844;-88
2021/08/15 09:31:33;;;;;;;10.85;7.25;;;;;;;33.26;49.86;97099.06;1716554;83;25812;-86
2021/08/15 09:34:02;;;;;;;11.73;8.20;;;;;;;33.28;49.77;97093.69;1715038;83;25873;-88
2021/08/15 09:36:34;;;;;;;15.53;7.30;;;;;;;33.30;49.28;97092.73;1701269;83;26213;-86
2021/08/15 09:39:05;;;;;;;13.32;7.53;;;;;;;33.24;48.90;97088.82;1718766;82;26046;-84
2021/08/15 09:41:37;;;;;;;11.30;7.20;;;;;;;33.32;48.45;97080.60;1718797;82;25785;-87
2021/08/15 09:44:29;;;;;;;10.23;7.53;;;;;;;33.41;48.31;97081.19;1725425;81;25771;-86
2021/08/15 09:47:03;;;;;;;12.03;6.28;;;;;;;33.52;48.52;97083.02;1720596;82;26728;-86
2021/08/15 09:49:45;;;;;;;13.00;7.17;;;;;;;33.53;47.71;97076.25;1726265;82;26318;-86
2021/08/15 09:52:20;;;;;;;10.58;7.25;;;;;;;33.57;47.45;97073.54;1716698;82;28745;-88
2021/08/15 09:54:59;;;;;;;10.28;7.03;;;;;;;33.53;47.13;97074.05;1721505;82;26343;-89
2021/08/15 09:57:36;;;;;;;15.93;7.12;;;;;;;33.53;46.89;97069.84;1719377;82;25746;-87
2021/08/15 10:00:07;;;;;;;11.30;6.83;;;;;;;33.25;46.54;97070.05;1718903;82;25774;-85
2021/08/15 10:02:33;;;;;;;11.60;7.50;;;;;;;33.06;46.55;97062.44;1701405;84;26459;-86
2021/08/15 10:05:00;;;;;;;10.53;7.08;;;;;;;33.02;46.79;97058.75;1702059;84;27515;-89
2021/08/15 10:07:27;;;;;;;13.93;7.17;;;;;;;33.07;46.75;97059.05;1690261;84;25793;-89
2021/08/15 10:09:54;;;;;;;14.15;7.83;;;;;;;32.95;46.97;97052.20;1690360;84;25754;-85
2021/08/15 10:12:20;;;;;;;11.08;7.25;;;;;;;32.68;46.61;97051.95;1720666;82;27023;-88
2021/08/15 10:14:47;;;;;;;13.00;6.78;;;;;;;32.41;46.51;97052.89;1701704;84;26391;-84
2021/08/15 10:17:16;;;;;;;9.68;7.20;;;;;;;32.08;46.77;97054.05;1689510;84;28169;-84
2021/08/15 10:19:53;;;;;;;13.20;6.92;;;;;;;31.77;46.97;97060.39;1701413;84;25742;-85
2021/08/15 10:22:23;;;;;;;12.30;6.85;;;;;;;31.54;47.22;97075.23;1720939;82;25807;-85
2021/08/15 10:24:54;;;;;;;11.03;7.40;;;;;;;31.27;47.48;97054.57;1702096;83;25836;-85
2021/08/15 10:27:44;;;;;;;13.78;7.95;;;;;;;30.94;48.40;97048.58;1700206;83;25740;-85
2021/08/15 10:30:24;;;;;;;9.53;8.03;;;;;;;30.57;49.38;97059.55;1720839;83;28258;-84
2021/08/15 10:33:05;;;;;;;15.23;8.65;;;;;;;30.24;49.79;97063.23;1715972;82;25749;-84
2021/08/15 10:35:38;;;;;;;12.65;8.40;;;;;;;30.00;49.96;97065.41;1701881;84;25666;-84
2021/08/15 10:38:18;;;;;;;12.70;7.95;;;;;;;29.77;50.82;97060.58;1702585;84;25776;-84
2021/08/15 10:40:49;;;;;;;11.30;8.58;;;;;;;29.58;51.01;97063.33;1689617;84;25851;-85
2021/08/15 10:43:26;;;;;;;11.73;7.40;;;;;;;29.40;51.06;97067.41;1719923;83;28088;-84
2021/08/15 10:46:22;;;;;;;15.88;8.48;;;;;;;29.22;51.24;97063.93;1719258;82;25776;-83
2021/08/15 10:49:02;;;;;;;14.25;8.03;;;;;;;29.10;51.53;97058.34;1721209;82;25318;-84
2021/08/15 10:51:48;;;;;;;14.55;7.25;;;;;;;28.97;51.76;97053.30;1716533;83;26380;-85
2021/08/15 10:54:33;;;;;;;15.10;8.88;;;;;;;28.86;52.02;97066.54;1702450;84;25721;-84
2021/08/15 10:57:04;;;;;;;15.28;9.70;;;;;;;28.73;52.38;97061.45;1706271;82;27505;-84
2021/08/15 10:59:38;;;;;;;12.82;8.05;;;;;;;28.77;52.94;97057.40;1701931;82;26437;-83
2021/08/15 11:02:14;;;;;;;17.07;7.97;;;;;;;28.80;53.10;97045.08;1753193;81;25674;-85
2021/08/15 11:04:56;;;;;;;14.40;8.43;;;;;;;28.73;53.21;97036.45;1744747;81;26381;-86
2021/08/15 11:07:40;;;;;;;;;;;;;;;28.86;53.98;97035.37;1722055;83;25675;-82
2021/08/15 11:10:10;;;;;;;10.23;7.10;;;;;;;29.08;53.71;97026.48;1723021;83;27547;-88
2021/08/15 11:13:15;;;;;;;10.82;8.30;;;;;;;29.18;53.46;97010.77;1732090;81;25966;-86
2021/08/15 11:15:42;;;;;;;13.40;8.55;;;;;;;29.26;53.94;97011.27;1686495;84;26199;-85
2021/08/15 11:18:14;;;;;;;11.88;7.33;;;;;;;29.41;54.17;97016.22;1660802;86;25815;-86
2021/08/15 11:20:48;;;;;;;;;;;;;;;29.33;53.87;97019.88;1660486;86;25950;-87
2021/08/15 11:23:18;;;;;;;17.73;7.75;;;;;;;29.17;54.03;97028.02;1633031;87;28106;-84
2021/08/15 11:25:46;;;;;;;17.40;7.45;;;;;;;28.97;54.24;97026.90;1657466;86;25879;-85
2021/08/15 11:28:15;;;;;;;15.40;8.68;;;;;;;28.82;54.58;97030.28;1658001;86;25809;-85